LQTZ/TZL METAR and TAF weather

Enter ICAO airport designator
Station Type Date Time Source
LQTZ METAR 2019/04/18 22:00 UTC NOAA

LQTZ 182200Z VRB01KT CAVOK 05/04 Q1028


Station Type Date Time Source
LQTZ Decoded METAR 2019/04/18 22:00 UTC NOAA

Tuzla, Bosnia and Herzegovina (LQTZ) 44-33N 018-42E
Apr 18, 2019 - 06:00 PM EDT / 2019.04.18 2200 UTC
Wind: Variable at 1 MPH (1 KT):0
Visibility: greater than 7 mile(s):0
Temperature: 41 F (5 C)
Dew Point: 39 F (4 C)
Relative Humidity: 93%
Pressure (altimeter): 30.36 in. Hg (1028 hPa)
ob: LQTZ 182200Z VRB01KT CAVOK 05/04 Q1028
cycle: 22

Station Type Date Time Source
LQTZ TAF 2019/04/18 22:12 UTC NOAA

TAF TAF LQTZ 182204Z 1822/1918 CNL

Example: see airport list